• Join FlightAware (Why Join?)
  • Login
  • US Flag 
06:45PM EDT


 

Airport Tracker/Info


-or-


 

Live Flight TrackerFlight Track Log ✈ LNI619 ✈ 14-Oct-2013 ✈ WIPK / PGK - WIII / CGK

Flight Track Log - Related Links

Times and Time Zones

All times are in EDT time to prevent confusion due to time zone crossing. See the LNI619 flight status page for this flight to view local times or setup timezone preferences in your user account.

Time Position Orientation Groundspeed Altitude Reporting Facility
EDT Latitude Longitude Course Direction KTS MPH feet Rate Location/Type
07:56AM -5.4110 106.7390 164° South 267 307 11,600  Level FlightAware
07:56AM -5.4480 106.7490 165° South 237 273 11,200 -960 Descending FlightAware
07:57AM -5.4860 106.7600 164° South 248 285 10,600 -1,200 Descending FlightAware
07:57AM -5.5200 106.7690 165° South 251 289 9,900 -1,320 Descending FlightAware
07:58AM -5.5430 106.7760 163° South 249 287 9,500 -900 Descending FlightAware
07:58AM -5.5630 106.7810 166° South 245 282 9,300 -1,080 Descending FlightAware
07:58AM -5.5810 106.7870 162° South 242 278 8,900 -1,380 Descending FlightAware
07:58AM -5.6020 106.7920 167° South 242 278 8,500 -1,380 Descending FlightAware
07:59AM -5.6240 106.7980 165° South 241 277 8,000 -1,500 Descending FlightAware
07:59AM -5.6520 106.8060 164° South 240 276 7,400 -1,200 Descending FlightAware
07:59AM -5.6610 106.8090 162° South 239 275 7,300 -1,080 Descending FlightAware
08:00AM -5.6860 106.8160 164° South 237 273 6,800 -1,080 Descending FlightAware
08:00AM -5.7100 106.8230 164° South 233 268 6,500 -1,080 Descending FlightAware
08:00AM -5.7300 106.8280 166° South 232 267 6,100 -1,200 Descending FlightAware
08:01AM -5.7520 106.8340 165° South 231 266 5,700 -1,200 Descending FlightAware
08:01AM -5.7780 106.8410 165° South 230 265 5,200 -1,020 Descending FlightAware
08:01AM -5.7830 106.8410 180° South 230 265 5,200 -960 Level FlightAware
08:02AM -5.8030 106.8400 183° South 229 264 4,800 -1,200 Descending FlightAware
08:02AM -5.8250 106.8380 185° South 229 264 4,400 -1,080 Descending FlightAware
08:02AM -5.8420 106.8370 183° South 229 264 4,200 -900 Descending FlightAware
08:03AM -5.8660 106.8350 185° South 228 262 3,800 -960 Descending FlightAware
08:03AM -5.8890 106.8340 182° South 220 253 3,500 -780 Descending FlightAware
08:03AM -5.9090 106.8320 186° South 209 241 3,300 -600 Descending FlightAware
08:04AM -5.9260 106.8310 183° South 203 234 3,100 -480 Descending FlightAware
08:04AM -5.9460 106.8300 183° South 201 231 3,000 -480 Descending FlightAware
08:04AM -5.9650 106.8280 186° South 201 231 2,800 -540 Descending FlightAware
08:05AM -5.9880 106.8270 182° South 190 219 2,600 -540 Descending FlightAware
08:05AM -5.9980 106.8260 186° South 186 214 2,500 -540 Descending FlightAware
08:05AM -6.0190 106.8240 185° South 181 208 2,300 -540 Descending FlightAware
08:06AM -6.0360 106.8230 183° South 180 207 2,100 -480 Descending FlightAware
08:06AM -6.0420 106.8220 189° South 177 204 2,100  Level FlightAware
08:06AM -6.0450 106.8210 198° South 175 201 2,100  Level FlightAware
08:06AM -6.0490 106.8170 225° Southwest 172 198 2,100  Level FlightAware
08:06AM -6.0520 106.8110 243° Southwest 170 196 2,100  Level FlightAware
08:06AM -6.0560 106.8020 246° West 170 196 2,100  Level FlightAware
08:07AM -6.0630 106.7850 248° West 163 188 2,100 -180 Level FlightAware
08:07AM -6.0690 106.7700 248° West 162 186 2,000 -600 Descending FlightAware
08:07AM -6.0720 106.7620 249° West 159 183 1,800 -780 Descending FlightAware
08:08AM -6.0770 106.7500 247° West 154 177 1,600 -720 Descending FlightAware
08:08AM -6.0840 106.7320 249° West 151 174 1,300 -660 Descending FlightAware
08:08AM -6.0870 106.7250 247° West 150 173 1,200 -720 Descending FlightAware
08:09AM -6.0930 106.7090 249° West 153 176 900 -480 Descending FlightAware
08:09AM -6.1010 106.6900 247° West 152 175 800 -180 Descending FlightAware
08:12AM -6.1256 106.6559 234° Southwest  Level Estimated